sensor_id;sensor_type;location;lat;lon;timestamp;temperature;humidity
18805;DHT22;9530;48.930;9.526;2023-04-03T00:00:05;3.90;99.90
18805;DHT22;9530;48.930;9.526;2023-04-03T00:02:33;3.90;99.90
18805;DHT22;9530;48.930;9.526;2023-04-03T00:05:00;3.90;99.90
18805;DHT22;9530;48.930;9.526;2023-04-03T00:07:27;3.90;99.90
18805;DHT22;9530;48.930;9.526;2023-04-03T00:09:53;3.70;99.90
18805;DHT22;9530;48.930;9.526;2023-04-03T00:12:21;3.90;99.90
18805;DHT22;9530;48.930;9.526;2023-04-03T00:14:48;4.00;99.90
18805;DHT22;9530;48.930;9.526;2023-04-03T00:17:15;4.00;99.90
18805;DHT22;9530;48.930;9.526;2023-04-03T00:19:41;4.00;99.90
18805;DHT22;9530;48.930;9.526;2023-04-03T00:22:08;3.90;99.90
18805;DHT22;9530;48.930;9.526;2023-04-03T00:24:35;3.80;99.90
18805;DHT22;9530;48.930;9.526;2023-04-03T00:27:01;3.80;99.90
18805;DHT22;9530;48.930;9.526;2023-04-03T00:29:29;3.80;99.90
18805;DHT22;9530;48.930;9.526;2023-04-03T00:31:56;3.80;99.90
18805;DHT22;9530;48.930;9.526;2023-04-03T00:34:23;3.80;99.90
18805;DHT22;9530;48.930;9.526;2023-04-03T00:36:49;3.70;99.90
18805;DHT22;9530;48.930;9.526;2023-04-03T00:39:16;3.60;99.90
18805;DHT22;9530;48.930;9.526;2023-04-03T00:41:43;3.60;99.90
18805;DHT22;9530;48.930;9.526;2023-04-03T00:44:21;3.60;99.90
18805;DHT22;9530;48.930;9.526;2023-04-03T00:46:49;3.60;99.90
18805;DHT22;9530;48.930;9.526;2023-04-03T00:49:16;3.50;99.90
18805;DHT22;9530;48.930;9.526;2023-04-03T00:51:43;3.50;99.90
18805;DHT22;9530;48.930;9.526;2023-04-03T00:54:10;3.50;99.90
18805;DHT22;9530;48.930;9.526;2023-04-03T00:56:37;3.40;99.90
18805;DHT22;9530;48.930;9.526;2023-04-03T00:59:07;3.50;99.90
18805;DHT22;9530;48.930;9.526;2023-04-03T01:01:35;3.50;99.90
18805;DHT22;9530;48.930;9.526;2023-04-03T01:04:04;3.60;99.90
18805;DHT22;9530;48.930;9.526;2023-04-03T01:06:33;3.60;99.90
18805;DHT22;9530;48.930;9.526;2023-04-03T01:09:02;3.70;99.90
18805;DHT22;9530;48.930;9.526;2023-04-03T01:11:29;3.70;99.90
18805;DHT22;9530;48.930;9.526;2023-04-03T01:13:55;3.80;99.90
18805;DHT22;9530;48.930;9.526;2023-04-03T01:16:22;3.80;99.90
18805;DHT22;9530;48.930;9.526;2023-04-03T01:18:49;3.90;99.90
18805;DHT22;9530;48.930;9.526;2023-04-03T01:21:44;3.80;99.90
18805;DHT22;9530;48.930;9.526;2023-04-03T01:24:31;3.90;99.90
18805;DHT22;9530;48.930;9.526;2023-04-03T01:26:59;4.00;99.90
18805;DHT22;9530;48.930;9.526;2023-04-03T01:29:27;3.90;99.90
18805;DHT22;9530;48.930;9.526;2023-04-03T01:31:57;4.00;99.90
18805;DHT22;9530;48.930;9.526;2023-04-03T01:34:24;3.90;99.90
18805;DHT22;9530;48.930;9.526;2023-04-03T01:36:51;3.90;99.90
18805;DHT22;9530;48.930;9.526;2023-04-03T01:39:19;3.90;99.90
18805;DHT22;9530;48.930;9.526;2023-04-03T01:41:46;3.90;99.90
18805;DHT22;9530;48.930;9.526;2023-04-03T01:44:13;3.80;99.90
18805;DHT22;9530;48.930;9.526;2023-04-03T01:46:40;3.80;99.90
18805;DHT22;9530;48.930;9.526;2023-04-03T01:49:09;3.90;99.90
18805;DHT22;9530;48.930;9.526;2023-04-03T01:51:36;3.90;99.90
18805;DHT22;9530;48.930;9.526;2023-04-03T01:54:03;3.80;99.90
18805;DHT22;9530;48.930;9.526;2023-04-03T01:56:29;3.70;99.90
18805;DHT22;9530;48.930;9.526;2023-04-03T01:58:56;3.70;99.90
18805;DHT22;9530;48.930;9.526;2023-04-03T02:01:23;3.70;99.90
18805;DHT22;9530;48.930;9.526;2023-04-03T02:03:51;3.70;99.90
18805;DHT22;9530;48.930;9.526;2023-04-03T02:06:19;3.70;99.90
18805;DHT22;9530;48.930;9.526;2023-04-03T02:08:45;3.80;99.90
18805;DHT22;9530;48.930;9.526;2023-04-03T02:11:12;3.80;99.90
18805;DHT22;9530;48.930;9.526;2023-04-03T02:13:39;3.90;99.90
18805;DHT22;9530;48.930;9.526;2023-04-03T02:16:07;3.90;99.90
18805;DHT22;9530;48.930;9.526;2023-04-03T02:18:35;4.00;99.90
18805;DHT22;9530;48.930;9.526;2023-04-03T02:21:02;4.00;99.90
18805;DHT22;9530;48.930;9.526;2023-04-03T02:23:30;4.10;99.90
18805;DHT22;9530;48.930;9.526;2023-04-03T02:26:04;4.00;99.90
18805;DHT22;9530;48.930;9.526;2023-04-03T02:28:31;4.00;99.90
18805;DHT22;9530;48.930;9.526;2023-04-03T02:30:58;4.00;99.90
18805;DHT22;9530;48.930;9.526;2023-04-03T02:33:25;3.80;99.90
18805;DHT22;9530;48.930;9.526;2023-04-03T02:35:53;3.90;99.90
18805;DHT22;9530;48.930;9.526;2023-04-03T02:38:20;3.80;99.90
18805;DHT22;9530;48.930;9.526;2023-04-03T02:40:47;3.80;99.90
18805;DHT22;9530;48.930;9.526;2023-04-03T02:43:15;3.80;99.90
18805;DHT22;9530;48.930;9.526;2023-04-03T02:45:41;4.00;99.90
18805;DHT22;9530;48.930;9.526;2023-04-03T02:48:08;4.00;99.90
18805;DHT22;9530;48.930;9.526;2023-04-03T02:50:35;3.90;99.90
18805;DHT22;9530;48.930;9.526;2023-04-03T02:53:02;4.00;99.90
18805;DHT22;9530;48.930;9.526;2023-04-03T02:55:28;4.10;99.90
18805;DHT22;9530;48.930;9.526;2023-04-03T02:57:56;4.10;99.90
18805;DHT22;9530;48.930;9.526;2023-04-03T03:00:23;4.10;99.90
18805;DHT22;9530;48.930;9.526;2023-04-03T03:02:50;4.10;99.90
18805;DHT22;9530;48.930;9.526;2023-04-03T03:05:17;4.10;99.90
18805;DHT22;9530;48.930;9.526;2023-04-03T03:07:43;4.10;99.90
18805;DHT22;9530;48.930;9.526;2023-04-03T03:10:10;4.10;99.90
18805;DHT22;9530;48.930;9.526;2023-04-03T03:12:37;4.10;99.90
18805;DHT22;9530;48.930;9.526;2023-04-03T03:15:06;4.10;99.90
18805;DHT22;9530;48.930;9.526;2023-04-03T03:17:33;4.10;99.90
18805;DHT22;9530;48.930;9.526;2023-04-03T03:20:01;4.10;99.90
18805;DHT22;9530;48.930;9.526;2023-04-03T03:22:28;4.10;99.90
18805;DHT22;9530;48.930;9.526;2023-04-03T03:24:54;4.20;99.90
18805;DHT22;9530;48.930;9.526;2023-04-03T03:27:21;4.30;99.90
18805;DHT22;9530;48.930;9.526;2023-04-03T03:29:49;4.30;99.90
18805;DHT22;9530;48.930;9.526;2023-04-03T03:32:17;4.30;99.90
18805;DHT22;9530;48.930;9.526;2023-04-03T03:34:44;4.20;99.90
18805;DHT22;9530;48.930;9.526;2023-04-03T03:37:10;4.20;99.90
18805;DHT22;9530;48.930;9.526;2023-04-03T03:39:37;4.20;99.90
18805;DHT22;9530;48.930;9.526;2023-04-03T03:42:04;4.20;99.90
18805;DHT22;9530;48.930;9.526;2023-04-03T03:44:30;4.10;99.90
18805;DHT22;9530;48.930;9.526;2023-04-03T03:46:57;4.10;99.90
18805;DHT22;9530;48.930;9.526;2023-04-03T03:49:25;4.00;99.90
18805;DHT22;9530;48.930;9.526;2023-04-03T03:51:52;3.90;99.90
18805;DHT22;9530;48.930;9.526;2023-04-03T03:54:18;3.90;99.90
18805;DHT22;9530;48.930;9.526;2023-04-03T03:56:45;3.90;99.90
18805;DHT22;9530;48.930;9.526;2023-04-03T03:59:12;3.90;99.90
18805;DHT22;9530;48.930;9.526;2023-04-03T04:01:39;3.80;99.90
18805;DHT22;9530;48.930;9.526;2023-04-03T04:04:06;3.80;99.90
18805;DHT22;9530;48.930;9.526;2023-04-03T04:06:34;3.90;99.90
18805;DHT22;9530;48.930;9.526;2023-04-03T04:09:00;3.80;99.90
18805;DHT22;9530;48.930;9.526;2023-04-03T04:11:27;3.80;99.90
18805;DHT22;9530;48.930;9.526;2023-04-03T04:13:54;3.80;99.90
18805;DHT22;9530;48.930;9.526;2023-04-03T04:16:20;3.80;99.90
18805;DHT22;9530;48.930;9.526;2023-04-03T04:18:47;3.80;99.90
18805;DHT22;9530;48.930;9.526;2023-04-03T04:21:14;3.80;99.90
18805;DHT22;9530;48.930;9.526;2023-04-03T04:23:42;3.70;99.90
18805;DHT22;9530;48.930;9.526;2023-04-03T04:26:08;3.80;99.90
18805;DHT22;9530;48.930;9.526;2023-04-03T04:28:35;3.80;99.90
18805;DHT22;9530;48.930;9.526;2023-04-03T04:31:02;3.60;99.90
18805;DHT22;9530;48.930;9.526;2023-04-03T04:33:28;3.50;99.90
18805;DHT22;9530;48.930;9.526;2023-04-03T04:35:55;3.40;99.90
18805;DHT22;9530;48.930;9.526;2023-04-03T04:38:22;3.30;99.90
18805;DHT22;9530;48.930;9.526;2023-04-03T04:40:50;3.20;99.90
18805;DHT22;9530;48.930;9.526;2023-04-03T04:43:16;3.10;99.90
18805;DHT22;9530;48.930;9.526;2023-04-03T04:45:43;3.10;99.90
18805;DHT22;9530;48.930;9.526;2023-04-03T04:48:10;3.10;99.90
18805;DHT22;9530;48.930;9.526;2023-04-03T04:50:37;2.90;99.90
18805;DHT22;9530;48.930;9.526;2023-04-03T04:53:03;2.80;99.90
18805;DHT22;9530;48.930;9.526;2023-04-03T04:55:30;2.70;99.90
18805;DHT22;9530;48.930;9.526;2023-04-03T04:57:58;2.60;99.90
18805;DHT22;9530;48.930;9.526;2023-04-03T05:00:25;2.40;99.90
18805;DHT22;9530;48.930;9.526;2023-04-03T05:02:52;2.30;99.90
18805;DHT22;9530;48.930;9.526;2023-04-03T05:05:18;2.20;99.90
18805;DHT22;9530;48.930;9.526;2023-04-03T05:07:45;2.20;99.90
18805;DHT22;9530;48.930;9.526;2023-04-03T05:10:12;2.20;99.90
18805;DHT22;9530;48.930;9.526;2023-04-03T05:12:38;2.10;99.90
18805;DHT22;9530;48.930;9.526;2023-04-03T05:15:08;2.00;99.90
18805;DHT22;9530;48.930;9.526;2023-04-03T05:17:35;2.00;99.90
18805;DHT22;9530;48.930;9.526;2023-04-03T05:20:02;1.90;99.90
18805;DHT22;9530;48.930;9.526;2023-04-03T05:22:29;2.10;99.90
18805;DHT22;9530;48.930;9.526;2023-04-03T05:24:56;2.20;99.90
18805;DHT22;9530;48.930;9.526;2023-04-03T05:27:23;2.20;99.90
18805;DHT22;9530;48.930;9.526;2023-04-03T05:29:50;2.30;99.90
18805;DHT22;9530;48.930;9.526;2023-04-03T05:32:18;2.40;99.90
18805;DHT22;9530;48.930;9.526;2023-04-03T05:34:44;2.50;99.90
18805;DHT22;9530;48.930;9.526;2023-04-03T05:37:11;2.60;99.90
18805;DHT22;9530;48.930;9.526;2023-04-03T05:39:38;2.70;99.90
18805;DHT22;9530;48.930;9.526;2023-04-03T05:42:06;2.80;99.90
18805;DHT22;9530;48.930;9.526;2023-04-03T05:44:33;2.90;99.90
18805;DHT22;9530;48.930;9.526;2023-04-03T05:47:00;3.10;99.90
18805;DHT22;9530;48.930;9.526;2023-04-03T05:49:28;3.10;99.90
18805;DHT22;9530;48.930;9.526;2023-04-03T05:51:55;3.10;99.90
18805;DHT22;9530;48.930;9.526;2023-04-03T05:54:24;3.20;99.90
18805;DHT22;9530;48.930;9.526;2023-04-03T05:56:51;3.20;99.90
18805;DHT22;9530;48.930;9.526;2023-04-03T05:59:18;3.20;99.90
18805;DHT22;9530;48.930;9.526;2023-04-03T06:01:45;3.20;99.90
18805;DHT22;9530;48.930;9.526;2023-04-03T06:04:13;3.30;99.90
18805;DHT22;9530;48.930;9.526;2023-04-03T06:06:47;3.40;99.90
18805;DHT22;9530;48.930;9.526;2023-04-03T06:09:14;3.50;99.90
18805;DHT22;9530;48.930;9.526;2023-04-03T06:11:40;3.60;99.90
18805;DHT22;9530;48.930;9.526;2023-04-03T06:14:08;3.70;99.90
18805;DHT22;9530;48.930;9.526;2023-04-03T06:16:35;3.70;99.90
18805;DHT22;9530;48.930;9.526;2023-04-03T06:19:02;3.80;99.90
18805;DHT22;9530;48.930;9.526;2023-04-03T06:21:30;3.90;99.90
18805;DHT22;9530;48.930;9.526;2023-04-03T06:23:58;4.00;99.90
18805;DHT22;9530;48.930;9.526;2023-04-03T06:26:24;4.00;99.90
18805;DHT22;9530;48.930;9.526;2023-04-03T06:28:52;4.10;99.90
18805;DHT22;9530;48.930;9.526;2023-04-03T06:31:19;4.10;99.90
18805;DHT22;9530;48.930;9.526;2023-04-03T06:33:46;4.10;99.90
18805;DHT22;9530;48.930;9.526;2023-04-03T06:36:12;4.20;99.90
18805;DHT22;9530;48.930;9.526;2023-04-03T06:38:39;4.20;99.90
18805;DHT22;9530;48.930;9.526;2023-04-03T06:41:07;4.20;99.90
18805;DHT22;9530;48.930;9.526;2023-04-03T06:43:34;4.20;99.90
18805;DHT22;9530;48.930;9.526;2023-04-03T06:46:01;4.20;99.90
18805;DHT22;9530;48.930;9.526;2023-04-03T06:48:28;4.30;99.90
18805;DHT22;9530;48.930;9.526;2023-04-03T06:50:55;4.30;99.90
18805;DHT22;9530;48.930;9.526;2023-04-03T06:53:22;4.40;99.90
18805;DHT22;9530;48.930;9.526;2023-04-03T06:55:49;4.50;99.90
18805;DHT22;9530;48.930;9.526;2023-04-03T06:58:17;4.60;99.90
18805;DHT22;9530;48.930;9.526;2023-04-03T07:00:43;4.60;99.90
18805;DHT22;9530;48.930;9.526;2023-04-03T07:03:10;4.70;99.90
18805;DHT22;9530;48.930;9.526;2023-04-03T07:05:37;4.60;99.90
18805;DHT22;9530;48.930;9.526;2023-04-03T07:08:04;4.50;99.90
18805;DHT22;9530;48.930;9.526;2023-04-03T07:10:31;4.50;99.90
18805;DHT22;9530;48.930;9.526;2023-04-03T07:12:57;4.50;99.90
18805;DHT22;9530;48.930;9.526;2023-04-03T07:15:25;4.70;99.90
18805;DHT22;9530;48.930;9.526;2023-04-03T07:17:52;4.70;99.90
18805;DHT22;9530;48.930;9.526;2023-04-03T07:20:18;4.60;99.90
18805;DHT22;9530;48.930;9.526;2023-04-03T07:22:45;4.60;99.90
18805;DHT22;9530;48.930;9.526;2023-04-03T07:25:12;4.80;99.90
18805;DHT22;9530;48.930;9.526;2023-04-03T07:27:39;4.80;99.90
18805;DHT22;9530;48.930;9.526;2023-04-03T07:30:06;5.10;99.90
18805;DHT22;9530;48.930;9.526;2023-04-03T07:32:35;5.30;99.90
18805;DHT22;9530;48.930;9.526;2023-04-03T07:35:03;5.40;99.90
18805;DHT22;9530;48.930;9.526;2023-04-03T07:37:29;5.40;99.90
18805;DHT22;9530;48.930;9.526;2023-04-03T07:39:57;5.30;99.90
18805;DHT22;9530;48.930;9.526;2023-04-03T07:42:24;5.20;99.90
18805;DHT22;9530;48.930;9.526;2023-04-03T07:44:53;5.40;99.90
18805;DHT22;9530;48.930;9.526;2023-04-03T07:47:19;5.60;99.90
18805;DHT22;9530;48.930;9.526;2023-04-03T07:49:47;5.60;99.90
18805;DHT22;9530;48.930;9.526;2023-04-03T07:52:14;5.70;99.90
18805;DHT22;9530;48.930;9.526;2023-04-03T07:54:41;5.70;99.90
18805;DHT22;9530;48.930;9.526;2023-04-03T07:57:08;5.60;99.90
18805;DHT22;9530;48.930;9.526;2023-04-03T07:59:35;5.80;99.90
18805;DHT22;9530;48.930;9.526;2023-04-03T08:02:01;5.80;99.90
18805;DHT22;9530;48.930;9.526;2023-04-03T08:04:30;5.80;99.90
18805;DHT22;9530;48.930;9.526;2023-04-03T08:06:58;6.00;99.90
18805;DHT22;9530;48.930;9.526;2023-04-03T08:09:25;5.90;99.90
18805;DHT22;9530;48.930;9.526;2023-04-03T08:11:52;5.90;99.90
18805;DHT22;9530;48.930;9.526;2023-04-03T08:14:19;6.00;99.90
18805;DHT22;9530;48.930;9.526;2023-04-03T08:16:47;5.90;99.90
18805;DHT22;9530;48.930;9.526;2023-04-03T08:19:14;6.00;99.90
18805;DHT22;9530;48.930;9.526;2023-04-03T08:21:43;6.10;99.90
18805;DHT22;9530;48.930;9.526;2023-04-03T08:24:11;6.20;99.90
18805;DHT22;9530;48.930;9.526;2023-04-03T08:26:38;6.20;99.90
18805;DHT22;9530;48.930;9.526;2023-04-03T08:29:05;6.40;99.90
18805;DHT22;9530;48.930;9.526;2023-04-03T08:31:32;6.20;99.90
18805;DHT22;9530;48.930;9.526;2023-04-03T08:33:58;6.20;99.90
18805;DHT22;9530;48.930;9.526;2023-04-03T08:36:27;6.40;99.90
18805;DHT22;9530;48.930;9.526;2023-04-03T08:38:55;6.30;99.90
18805;DHT22;9530;48.930;9.526;2023-04-03T08:41:29;6.30;99.90
18805;DHT22;9530;48.930;9.526;2023-04-03T08:44:13;6.60;99.90
18805;DHT22;9530;48.930;9.526;2023-04-03T08:46:48;6.40;99.90
18805;DHT22;9530;48.930;9.526;2023-04-03T08:49:22;6.40;99.90
18805;DHT22;9530;48.930;9.526;2023-04-03T08:51:51;6.50;99.90
18805;DHT22;9530;48.930;9.526;2023-04-03T08:54:26;6.20;99.90
18805;DHT22;9530;48.930;9.526;2023-04-03T08:56:55;6.50;99.90
18805;DHT22;9530;48.930;9.526;2023-04-03T08:59:28;6.50;99.90
18805;DHT22;9530;48.930;9.526;2023-04-03T09:01:56;6.60;99.90
18805;DHT22;9530;48.930;9.526;2023-04-03T09:04:25;6.70;99.90
18805;DHT22;9530;48.930;9.526;2023-04-03T09:07:02;7.10;99.90
18805;DHT22;9530;48.930;9.526;2023-04-03T09:09:33;7.20;99.90
18805;DHT22;9530;48.930;9.526;2023-04-03T09:12:11;7.10;99.90
18805;DHT22;9530;48.930;9.526;2023-04-03T09:14:42;7.00;99.90
18805;DHT22;9530;48.930;9.526;2023-04-03T09:17:15;6.90;99.90
18805;DHT22;9530;48.930;9.526;2023-04-03T09:19:51;7.00;99.90
18805;DHT22;9530;48.930;9.526;2023-04-03T09:22:24;7.20;99.90
18805;DHT22;9530;48.930;9.526;2023-04-03T09:24:56;7.20;99.90
18805;DHT22;9530;48.930;9.526;2023-04-03T09:27:25;7.50;99.90
18805;DHT22;9530;48.930;9.526;2023-04-03T09:29:54;7.60;99.90
18805;DHT22;9530;48.930;9.526;2023-04-03T09:32:26;7.30;99.90
18805;DHT22;9530;48.930;9.526;2023-04-03T09:34:54;7.50;99.90
18805;DHT22;9530;48.930;9.526;2023-04-03T09:37:38;7.70;99.90
18805;DHT22;9530;48.930;9.526;2023-04-03T09:40:12;7.80;99.90
18805;DHT22;9530;48.930;9.526;2023-04-03T09:42:57;7.40;99.90
18805;DHT22;9530;48.930;9.526;2023-04-03T09:45:26;7.30;99.90
18805;DHT22;9530;48.930;9.526;2023-04-03T09:48:05;7.10;99.90
18805;DHT22;9530;48.930;9.526;2023-04-03T09:50:32;7.00;99.90
18805;DHT22;9530;48.930;9.526;2023-04-03T09:53:04;6.90;99.90
18805;DHT22;9530;48.930;9.526;2023-04-03T09:55:33;7.20;99.90
18805;DHT22;9530;48.930;9.526;2023-04-03T09:58:26;7.40;99.90
18805;DHT22;9530;48.930;9.526;2023-04-03T10:00:57;7.60;99.90
18805;DHT22;9530;48.930;9.526;2023-04-03T10:03:28;7.70;99.90
18805;DHT22;9530;48.930;9.526;2023-04-03T10:05:55;7.70;99.90
18805;DHT22;9530;48.930;9.526;2023-04-03T10:08:27;7.90;99.90
18805;DHT22;9530;48.930;9.526;2023-04-03T10:11:14;7.70;99.90
18805;DHT22;9530;48.930;9.526;2023-04-03T10:13:55;7.50;99.90
18805;DHT22;9530;48.930;9.526;2023-04-03T10:16:27;7.60;99.90
18805;DHT22;9530;48.930;9.526;2023-04-03T10:21:53;7.70;99.90
18805;DHT22;9530;48.930;9.526;2023-04-03T10:24:27;8.10;99.90
18805;DHT22;9530;48.930;9.526;2023-04-03T10:26:58;8.10;99.90
18805;DHT22;9530;48.930;9.526;2023-04-03T10:29:36;8.00;99.90
18805;DHT22;9530;48.930;9.526;2023-04-03T10:32:19;7.90;99.90
18805;DHT22;9530;48.930;9.526;2023-04-03T10:34:52;7.90;99.90
18805;DHT22;9530;48.930;9.526;2023-04-03T10:37:24;7.90;99.90
18805;DHT22;9530;48.930;9.526;2023-04-03T10:39:56;7.70;99.90
18805;DHT22;9530;48.930;9.526;2023-04-03T10:42:28;7.70;99.90
18805;DHT22;9530;48.930;9.526;2023-04-03T10:45:15;7.80;99.90
18805;DHT22;9530;48.930;9.526;2023-04-03T10:47:48;7.80;99.90
18805;DHT22;9530;48.930;9.526;2023-04-03T10:50:38;7.60;99.90
18805;DHT22;9530;48.930;9.526;2023-04-03T10:53:13;7.60;99.90
18805;DHT22;9530;48.930;9.526;2023-04-03T10:55:49;7.70;99.90
18805;DHT22;9530;48.930;9.526;2023-04-03T10:58:21;7.70;99.90
18805;DHT22;9530;48.930;9.526;2023-04-03T11:00:53;7.50;99.90
18805;DHT22;9530;48.930;9.526;2023-04-03T11:03:27;7.60;99.90
18805;DHT22;9530;48.930;9.526;2023-04-03T11:05:57;7.40;99.90
18805;DHT22;9530;48.930;9.526;2023-04-03T11:08:28;7.40;99.90
18805;DHT22;9530;48.930;9.526;2023-04-03T11:11:00;7.20;99.90
18805;DHT22;9530;48.930;9.526;2023-04-03T11:13:32;7.10;99.90
18805;DHT22;9530;48.930;9.526;2023-04-03T11:16:02;7.10;99.90
18805;DHT22;9530;48.930;9.526;2023-04-03T11:18:35;6.80;99.90
18805;DHT22;9530;48.930;9.526;2023-04-03T11:21:07;6.80;99.90
18805;DHT22;9530;48.930;9.526;2023-04-03T11:23:38;6.80;99.90
18805;DHT22;9530;48.930;9.526;2023-04-03T11:26:09;7.30;99.90
18805;DHT22;9530;48.930;9.526;2023-04-03T11:28:37;7.40;99.90
18805;DHT22;9530;48.930;9.526;2023-04-03T11:31:14;7.70;99.90
18805;DHT22;9530;48.930;9.526;2023-04-03T11:33:47;8.10;99.90
18805;DHT22;9530;48.930;9.526;2023-04-03T11:36:21;8.30;99.90
18805;DHT22;9530;48.930;9.526;2023-04-03T11:38:49;8.30;99.90
18805;DHT22;9530;48.930;9.526;2023-04-03T11:41:26;8.20;99.90
18805;DHT22;9530;48.930;9.526;2023-04-03T11:43:58;7.50;99.90
18805;DHT22;9530;48.930;9.526;2023-04-03T11:46:51;7.80;99.90
18805;DHT22;9530;48.930;9.526;2023-04-03T11:52:57;8.20;99.90
18805;DHT22;9530;48.930;9.526;2023-04-03T11:55:52;8.40;99.90
18805;DHT22;9530;48.930;9.526;2023-04-03T11:58:20;8.50;99.90
18805;DHT22;9530;48.930;9.526;2023-04-03T12:01:06;8.20;99.90
18805;DHT22;9530;48.930;9.526;2023-04-03T12:03:56;7.90;99.90
18805;DHT22;9530;48.930;9.526;2023-04-03T12:12:30;8.00;99.90
18805;DHT22;9530;48.930;9.526;2023-04-03T12:15:16;7.90;99.90
18805;DHT22;9530;48.930;9.526;2023-04-03T12:17:44;8.00;99.90
18805;DHT22;9530;48.930;9.526;2023-04-03T12:20:53;7.80;99.90
18805;DHT22;9530;48.930;9.526;2023-04-03T12:23:30;7.80;99.90
18805;DHT22;9530;48.930;9.526;2023-04-03T12:26:03;7.80;99.90
18805;DHT22;9530;48.930;9.526;2023-04-03T12:28:37;7.90;99.90
18805;DHT22;9530;48.930;9.526;2023-04-03T12:31:04;8.10;99.90
18805;DHT22;9530;48.930;9.526;2023-04-03T12:33:43;8.10;99.90
18805;DHT22;9530;48.930;9.526;2023-04-03T12:36:18;8.20;99.90
18805;DHT22;9530;48.930;9.526;2023-04-03T12:39:03;8.20;99.90
18805;DHT22;9530;48.930;9.526;2023-04-03T12:41:37;8.50;99.90
18805;DHT22;9530;48.930;9.526;2023-04-03T12:44:17;8.50;99.90
18805;DHT22;9530;48.930;9.526;2023-04-03T12:46:48;8.40;99.90
18805;DHT22;9530;48.930;9.526;2023-04-03T12:49:30;8.50;99.90
18805;DHT22;9530;48.930;9.526;2023-04-03T12:51:59;8.40;99.90
18805;DHT22;9530;48.930;9.526;2023-04-03T12:54:31;8.60;99.90
18805;DHT22;9530;48.930;9.526;2023-04-03T12:57:10;8.60;99.90
18805;DHT22;9530;48.930;9.526;2023-04-03T12:59:37;8.70;99.90
18805;DHT22;9530;48.930;9.526;2023-04-03T13:02:15;8.60;99.90
18805;DHT22;9530;48.930;9.526;2023-04-03T13:04:44;8.50;99.90
18805;DHT22;9530;48.930;9.526;2023-04-03T13:07:20;8.60;99.90
18805;DHT22;9530;48.930;9.526;2023-04-03T13:10:00;8.70;99.90
18805;DHT22;9530;48.930;9.526;2023-04-03T13:12:28;8.80;99.90
18805;DHT22;9530;48.930;9.526;2023-04-03T13:14:57;8.80;99.90
18805;DHT22;9530;48.930;9.526;2023-04-03T13:17:25;8.60;99.90
18805;DHT22;9530;48.930;9.526;2023-04-03T13:19:53;8.70;99.90
18805;DHT22;9530;48.930;9.526;2023-04-03T13:22:26;8.70;99.90
18805;DHT22;9530;48.930;9.526;2023-04-03T13:24:59;8.50;99.90
18805;DHT22;9530;48.930;9.526;2023-04-03T13:27:29;8.60;99.90
18805;DHT22;9530;48.930;9.526;2023-04-03T13:29:59;8.90;99.90
18805;DHT22;9530;48.930;9.526;2023-04-03T13:32:28;9.00;99.90
18805;DHT22;9530;48.930;9.526;2023-04-03T13:34:55;9.10;99.90
18805;DHT22;9530;48.930;9.526;2023-04-03T13:37:24;9.20;99.90
18805;DHT22;9530;48.930;9.526;2023-04-03T13:40:03;9.00;99.90
18805;DHT22;9530;48.930;9.526;2023-04-03T13:42:32;8.90;99.90
18805;DHT22;9530;48.930;9.526;2023-04-03T13:45:19;8.80;99.90
18805;DHT22;9530;48.930;9.526;2023-04-03T13:47:47;9.00;99.90
18805;DHT22;9530;48.930;9.526;2023-04-03T13:50:18;9.00;99.90
18805;DHT22;9530;48.930;9.526;2023-04-03T13:52:47;9.10;99.90
18805;DHT22;9530;48.930;9.526;2023-04-03T13:55:22;9.10;99.90
18805;DHT22;9530;48.930;9.526;2023-04-03T13:57:54;9.10;99.90
18805;DHT22;9530;48.930;9.526;2023-04-03T14:00:29;8.90;99.90
18805;DHT22;9530;48.930;9.526;2023-04-03T14:02:56;9.00;99.90
18805;DHT22;9530;48.930;9.526;2023-04-03T14:05:24;9.10;99.90
18805;DHT22;9530;48.930;9.526;2023-04-03T14:07:52;9.20;99.90
18805;DHT22;9530;48.930;9.526;2023-04-03T14:10:21;9.10;99.90
18805;DHT22;9530;48.930;9.526;2023-04-03T14:12:48;8.90;99.90
18805;DHT22;9530;48.930;9.526;2023-04-03T14:15:18;8.80;99.90
18805;DHT22;9530;48.930;9.526;2023-04-03T14:17:46;8.90;99.90
18805;DHT22;9530;48.930;9.526;2023-04-03T14:20:15;9.00;99.90
18805;DHT22;9530;48.930;9.526;2023-04-03T14:22:42;8.90;99.90
18805;DHT22;9530;48.930;9.526;2023-04-03T14:25:09;8.90;99.90
18805;DHT22;9530;48.930;9.526;2023-04-03T14:27:40;8.80;99.90
18805;DHT22;9530;48.930;9.526;2023-04-03T14:30:11;8.60;99.90
18805;DHT22;9530;48.930;9.526;2023-04-03T14:32:39;8.40;99.90
18805;DHT22;9530;48.930;9.526;2023-04-03T14:35:06;8.20;99.90
18805;DHT22;9530;48.930;9.526;2023-04-03T14:37:33;8.20;99.90
18805;DHT22;9530;48.930;9.526;2023-04-03T14:40:02;8.20;99.90
18805;DHT22;9530;48.930;9.526;2023-04-03T14:42:32;8.30;99.90
18805;DHT22;9530;48.930;9.526;2023-04-03T14:45:02;8.30;99.90
18805;DHT22;9530;48.930;9.526;2023-04-03T14:47:30;8.50;99.90
18805;DHT22;9530;48.930;9.526;2023-04-03T14:49:57;8.50;99.90
18805;DHT22;9530;48.930;9.526;2023-04-03T14:52:26;8.90;99.90
18805;DHT22;9530;48.930;9.526;2023-04-03T14:54:53;9.00;99.90
18805;DHT22;9530;48.930;9.526;2023-04-03T14:57:22;9.20;99.90
18805;DHT22;9530;48.930;9.526;2023-04-03T14:59:50;9.20;99.90
18805;DHT22;9530;48.930;9.526;2023-04-03T15:02:27;9.20;99.90
18805;DHT22;9530;48.930;9.526;2023-04-03T15:04:54;9.10;99.90
18805;DHT22;9530;48.930;9.526;2023-04-03T15:07:21;8.90;99.90
18805;DHT22;9530;48.930;9.526;2023-04-03T15:09:48;8.80;99.90
18805;DHT22;9530;48.930;9.526;2023-04-03T15:12:16;8.50;99.90
18805;DHT22;9530;48.930;9.526;2023-04-03T15:14:42;8.40;99.90
18805;DHT22;9530;48.930;9.526;2023-04-03T15:17:14;8.30;99.90
18805;DHT22;9530;48.930;9.526;2023-04-03T15:19:43;8.50;99.90
18805;DHT22;9530;48.930;9.526;2023-04-03T15:22:13;8.50;99.90
18805;DHT22;9530;48.930;9.526;2023-04-03T15:24:40;8.60;99.90
18805;DHT22;9530;48.930;9.526;2023-04-03T15:27:07;8.70;99.90
18805;DHT22;9530;48.930;9.526;2023-04-03T15:29:33;8.50;99.90
18805;DHT22;9530;48.930;9.526;2023-04-03T15:32:00;8.60;99.90
18805;DHT22;9530;48.930;9.526;2023-04-03T15:34:27;8.30;99.90
18805;DHT22;9530;48.930;9.526;2023-04-03T15:36:55;8.10;99.90
18805;DHT22;9530;48.930;9.526;2023-04-03T15:39:22;7.90;99.90
18805;DHT22;9530;48.930;9.526;2023-04-03T15:41:51;8.40;99.90
18805;DHT22;9530;48.930;9.526;2023-04-03T15:44:19;8.70;99.90
18805;DHT22;9530;48.930;9.526;2023-04-03T15:46:47;10.00;99.90
18805;DHT22;9530;48.930;9.526;2023-04-03T15:49:16;13.80;99.90
18805;DHT22;9530;48.930;9.526;2023-04-03T15:51:43;14.10;99.00
18805;DHT22;9530;48.930;9.526;2023-04-03T15:54:12;13.60;94.50
18805;DHT22;9530;48.930;9.526;2023-04-03T15:56:38;11.50;96.20
18805;DHT22;9530;48.930;9.526;2023-04-03T15:59:05;11.50;96.40
18805;DHT22;9530;48.930;9.526;2023-04-03T16:01:32;10.30;97.70
18805;DHT22;9530;48.930;9.526;2023-04-03T16:03:58;9.70;98.40
18805;DHT22;9530;48.930;9.526;2023-04-03T16:06:26;8.70;99.20
18805;DHT22;9530;48.930;9.526;2023-04-03T16:08:55;8.80;99.90
18805;DHT22;9530;48.930;9.526;2023-04-03T16:11:25;10.00;99.90
18805;DHT22;9530;48.930;9.526;2023-04-03T16:13:52;11.40;99.70
18805;DHT22;9530;48.930;9.526;2023-04-03T16:16:19;12.80;97.40
18805;DHT22;9530;48.930;9.526;2023-04-03T16:18:46;14.00;92.60
18805;DHT22;9530;48.930;9.526;2023-04-03T16:21:14;13.40;92.90
18805;DHT22;9530;48.930;9.526;2023-04-03T16:23:42;11.40;96.50
18805;DHT22;9530;48.930;9.526;2023-04-03T16:26:09;11.40;97.50
18805;DHT22;9530;48.930;9.526;2023-04-03T16:28:37;12.10;96.40